Time;durP1;ratioP1;P1;durP2;ratioP2;P2;SDS_P1;SDS_P2;PMS_P1;PMS_P2;Temp;Humidity;BMP_temperature;BMP_pressure;BME280_temperature;BME280_humidity;BME280_pressure;Samples;Min_cycle;Max_cycle;Signal;HPM_P1;HPM_P2
2023/05/15 00:00:59;;;;;;;31.38;14.63;;;;;;;;;;5093700;27;20100;-70
2023/05/15 00:03:24;;;;;;;35.05;15.35;;;;;;;;;;5099217;27;20482;-70
2023/05/15 00:05:51;;;;;;;32.47;15.13;;;;;;;;;;5099518;27;20038;-70
2023/05/15 00:08:16;;;;;;;34.80;15.52;;;;;;;;;;5105881;27;20035;-70
2023/05/15 00:10:42;;;;;;;33.72;15.05;;;;;;;;;;5101520;27;20023;-70
2023/05/15 00:13:07;;;;;;;36.17;15.32;;;;;;;;;;5105768;28;20507;-70
2023/05/15 00:15:33;;;;;;;35.05;15.52;;;;;;;;;;5105314;28;20058;-70
2023/05/15 00:17:58;;;;;;;37.03;16.42;;;;;;;;;;5100979;27;20129;-70
2023/05/15 00:20:23;;;;;;;34.45;15.43;;;;;;;;;;5103612;27;20035;-70
2023/05/15 00:22:49;;;;;;;36.40;15.43;;;;;;;;;;5111531;27;20039;-71
2023/05/15 00:25:14;;;;;;;30.23;14.55;;;;;;;;;;5103217;28;20028;-71
2023/05/15 00:27:39;;;;;;;36.30;16.10;;;;;;;;;;5101812;27;20059;-70
2023/05/15 00:30:05;;;;;;;37.30;16.52;;;;;;;;;;5106506;27;20042;-71
2023/05/15 00:32:31;;;;;;;37.42;16.38;;;;;;;;;;5106045;27;20122;-71
2023/05/15 00:34:56;;;;;;;35.78;15.25;;;;;;;;;;5101298;28;20062;-71
2023/05/15 00:37:22;;;;;;;33.95;15.35;;;;;;;;;;5097962;28;20019;-70
2023/05/15 00:39:48;;;;;;;32.88;15.82;;;;;;;;;;5093437;27;20044;-70
2023/05/15 00:42:14;;;;;;;29.95;14.70;;;;;;;;;;5102910;28;20074;-70
2023/05/15 00:44:42;;;;;;;36.28;16.63;;;;;;;;;;5105938;27;20569;-70
2023/05/15 00:47:09;;;;;;;37.15;15.10;;;;;;;;;;5105947;28;20028;-70
2023/05/15 00:49:36;;;;;;;33.40;14.90;;;;;;;;;;5106090;27;20079;-70
2023/05/15 00:52:02;;;;;;;32.83;15.07;;;;;;;;;;5106056;28;20031;-70
2023/05/15 00:54:28;;;;;;;32.72;14.77;;;;;;;;;;5104844;28;20036;-70
2023/05/15 00:56:56;;;;;;;31.67;14.30;;;;;;;;;;5102966;27;20039;-70
2023/05/15 00:59:24;;;;;;;31.95;15.13;;;;;;;;;;5098193;27;20370;-70
2023/05/15 01:01:50;;;;;;;36.00;15.18;;;;;;;;;;5108764;27;20094;-70
2023/05/15 01:04:15;;;;;;;32.20;14.70;;;;;;;;;;5104857;27;20023;-70
2023/05/15 01:06:41;;;;;;;32.97;14.55;;;;;;;;;;5103410;27;20031;-70
2023/05/15 01:09:07;;;;;;;34.67;15.98;;;;;;;;;;5097902;28;20567;-70
2023/05/15 01:11:35;;;;;;;29.08;13.50;;;;;;;;;;5103635;27;20042;-70
2023/05/15 01:14:06;;;;;;;31.67;14.55;;;;;;;;;;5092575;28;20062;-70
2023/05/15 01:16:32;;;;;;;32.53;14.48;;;;;;;;;;5106278;28;20019;-70
2023/05/15 01:18:58;;;;;;;33.50;15.43;;;;;;;;;;5108990;28;20085;-70
2023/05/15 01:21:36;;;;;;;34.55;15.13;;;;;;;;;;5115278;27;20032;-70
2023/05/15 01:24:26;;;;;;;34.90;14.75;;;;;;;;;;5099888;28;20523;-70
2023/05/15 01:27:00;;;;;;;38.08;15.13;;;;;;;;;;5105044;28;20039;-70
2023/05/15 01:30:03;;;;;;;37.58;17.17;;;;;;;;;;5105618;27;20508;-70
2023/05/15 01:33:03;;;;;;;32.50;14.48;;;;;;;;;;5101166;27;20035;-70
2023/05/15 01:35:34;;;;;;;32.25;15.55;;;;;;;;;;5105001;27;20043;-70
2023/05/15 01:38:22;;;;;;;35.83;15.27;;;;;;;;;;5090422;27;20041;-70
2023/05/15 01:40:55;;;;;;;35.13;16.60;;;;;;;;;;5093819;27;20027;-70
2023/05/15 01:43:26;;;;;;;36.22;16.63;;;;;;;;;;5095977;27;20031;-70
2023/05/15 01:45:53;;;;;;;36.95;16.85;;;;;;;;;;5096455;27;20055;-70
2023/05/15 01:48:20;;;;;;;38.60;17.17;;;;;;;;;;5098861;27;20043;-70
2023/05/15 01:50:50;;;;;;;38.00;15.75;;;;;;;;;;5102387;27;20096;-70
2023/05/15 01:53:17;;;;;;;35.20;15.73;;;;;;;;;;5097255;28;20044;-70
2023/05/15 01:55:43;;;;;;;34.45;14.90;;;;;;;;;;5101571;27;20024;-70
2023/05/15 01:58:09;;;;;;;28.50;14.73;;;;;;;;;;5105255;28;20605;-70
2023/05/15 02:00:36;;;;;;;34.75;15.40;;;;;;;;;;5103455;27;20035;-70
2023/05/15 02:03:04;;;;;;;28.70;13.63;;;;;;;;;;5103874;28;20035;-70
2023/05/15 02:05:30;;;;;;;32.58;15.25;;;;;;;;;;5097411;27;20092;-70
2023/05/15 02:07:56;;;;;;;35.10;14.80;;;;;;;;;;5093617;28;20055;-70
2023/05/15 02:10:22;;;;;;;36.83;16.90;;;;;;;;;;5097443;28;20024;-70
2023/05/15 02:12:49;;;;;;;37.22;16.45;;;;;;;;;;5103977;27;20096;-70
2023/05/15 02:15:16;;;;;;;44.03;19.00;;;;;;;;;;5094332;28;20162;-70
2023/05/15 02:17:41;;;;;;;34.38;16.35;;;;;;;;;;5094569;28;20134;-70
2023/05/15 02:20:07;;;;;;;35.67;15.38;;;;;;;;;;5096554;28;20047;-70
2023/05/15 02:22:33;;;;;;;36.75;16.35;;;;;;;;;;5102947;27;20019;-70
2023/05/15 02:24:58;;;;;;;36.22;16.98;;;;;;;;;;5104604;28;20082;-70
2023/05/15 02:27:30;;;;;;;36.95;17.45;;;;;;;;;;5104087;27;20038;-70
2023/05/15 02:30:16;;;;;;;38.45;17.13;;;;;;;;;;5104836;27;20050;-71
2023/05/15 02:32:47;;;;;;;38.22;15.68;;;;;;;;;;5095150;27;20054;-70
2023/05/15 02:35:51;;;;;;;42.55;17.25;;;;;;;;;;5104931;27;20114;-70
2023/05/15 02:38:22;;;;;;;41.92;16.70;;;;;;;;;;5096253;27;20111;-70
2023/05/15 02:40:49;;;;;;;36.67;17.05;;;;;;;;;;5105274;27;20103;-70
2023/05/15 02:43:17;;;;;;;33.53;15.95;;;;;;;;;;5109306;28;20028;-70
2023/05/15 02:45:45;;;;;;;39.13;17.45;;;;;;;;;;5115460;27;20035;-70
2023/05/15 02:48:11;;;;;;;39.30;18.17;;;;;;;;;;5108024;27;20570;-70
2023/05/15 02:50:37;;;;;;;47.53;20.20;;;;;;;;;;5107070;28;20042;-70
2023/05/15 02:53:08;;;;;;;53.47;21.10;;;;;;;;;;5107366;27;21055;-70
2023/05/15 02:55:34;;;;;;;48.13;21.08;;;;;;;;;;5106908;27;20034;-70
2023/05/15 02:58:01;;;;;;;43.28;19.67;;;;;;;;;;5108584;28;20024;-70
2023/05/15 03:00:26;;;;;;;50.63;20.30;;;;;;;;;;5107240;27;20051;-70
2023/05/15 03:02:52;;;;;;;48.17;20.25;;;;;;;;;;5107720;27;20073;-70
2023/05/15 03:05:17;;;;;;;74.88;23.00;;;;;;;;;;5108015;27;20039;-70
2023/05/15 03:07:42;;;;;;;53.08;21.23;;;;;;;;;;5108002;28;20012;-70
2023/05/15 03:10:09;;;;;;;80.10;23.60;;;;;;;;;;5107515;28;20048;-71
2023/05/15 03:12:35;;;;;;;73.50;23.35;;;;;;;;;;5105997;28;20478;-70
2023/05/15 03:15:01;;;;;;;61.83;22.30;;;;;;;;;;5106952;27;20035;-70
2023/05/15 03:17:26;;;;;;;61.40;23.92;;;;;;;;;;5097145;27;20798;-70
2023/05/15 03:19:52;;;;;;;60.15;24.98;;;;;;;;;;5093573;27;20059;-70
2023/05/15 03:22:17;;;;;;;74.82;24.40;;;;;;;;;;5113150;27;20028;-70
2023/05/15 03:24:43;;;;;;;150.75;25.35;;;;;;;;;;5109036;27;20035;-70
2023/05/15 03:27:08;;;;;;;156.00;25.15;;;;;;;;;;5107715;27;20032;-70
2023/05/15 03:29:33;;;;;;;149.20;24.73;;;;;;;;;;5109916;27;20112;-70
2023/05/15 03:31:59;;;;;;;127.82;24.08;;;;;;;;;;5107217;27;20031;-70
2023/05/15 03:34:24;;;;;;;141.80;27.25;;;;;;;;;;5105370;28;20032;-71
2023/05/15 03:36:50;;;;;;;146.05;23.65;;;;;;;;;;5104844;27;20036;-70
2023/05/15 03:39:15;;;;;;;190.55;23.98;;;;;;;;;;5100529;27;20046;-70
2023/05/15 03:41:40;;;;;;;123.60;22.95;;;;;;;;;;5108909;27;20035;-70
2023/05/15 03:44:06;;;;;;;143.57;22.52;;;;;;;;;;5100702;28;20028;-70
2023/05/15 03:46:31;;;;;;;173.27;23.25;;;;;;;;;;5107653;27;20481;-70
2023/05/15 03:48:57;;;;;;;155.25;22.08;;;;;;;;;;5106692;27;20456;-70
2023/05/15 03:51:23;;;;;;;170.65;24.15;;;;;;;;;;5100404;28;20047;-70
2023/05/15 03:53:48;;;;;;;207.18;22.73;;;;;;;;;;5107220;27;20043;-70
2023/05/15 03:56:14;;;;;;;123.07;22.30;;;;;;;;;;5106674;27;20043;-70
2023/05/15 03:58:40;;;;;;;249.93;24.88;;;;;;;;;;5107225;28;20024;-70
2023/05/15 04:01:06;;;;;;;155.40;23.45;;;;;;;;;;5105841;28;20062;-70
2023/05/15 04:03:32;;;;;;;118.03;21.48;;;;;;;;;;5106601;28;20564;-70
2023/05/15 04:05:57;;;;;;;203.10;23.38;;;;;;;;;;5110993;27;20073;-70
2023/05/15 04:08:22;;;;;;;210.98;23.42;;;;;;;;;;5117225;27;20035;-70
2023/05/15 04:10:48;;;;;;;208.82;24.00;;;;;;;;;;5103343;27;20095;-70
2023/05/15 04:13:13;;;;;;;166.23;24.15;;;;;;;;;;5105128;27;20427;-70
2023/05/15 04:15:39;;;;;;;243.15;25.98;;;;;;;;;;5102004;27;20032;-70
2023/05/15 04:18:04;;;;;;;169.52;26.00;;;;;;;;;;5104034;27;20072;-70
2023/05/15 04:20:30;;;;;;;215.05;27.35;;;;;;;;;;5102508;28;20032;-70
2023/05/15 04:22:55;;;;;;;268.60;27.75;;;;;;;;;;5098912;27;20043;-70
2023/05/15 04:25:21;;;;;;;174.88;25.88;;;;;;;;;;5105611;28;20028;-70
2023/05/15 04:27:48;;;;;;;223.73;26.27;;;;;;;;;;5104146;28;20092;-70
2023/05/15 04:30:13;;;;;;;214.15;24.10;;;;;;;;;;5099819;27;20512;-70
2023/05/15 04:32:39;;;;;;;164.93;22.95;;;;;;;;;;5096171;28;20039;-71
2023/05/15 04:35:08;;;;;;;125.32;23.20;;;;;;;;;;5105072;28;20156;-70
2023/05/15 04:37:34;;;;;;;253.80;24.50;;;;;;;;;;5105318;27;20023;-70
2023/05/15 04:40:00;;;;;;;218.32;26.83;;;;;;;;;;5093184;28;20023;-70
2023/05/15 04:42:25;;;;;;;200.65;25.10;;;;;;;;;;5105945;27;20058;-70
2023/05/15 04:44:51;;;;;;;206.88;25.23;;;;;;;;;;5104648;28;20076;-70
2023/05/15 04:47:16;;;;;;;158.00;24.90;;;;;;;;;;5098463;27;21122;-71
2023/05/15 04:49:42;;;;;;;266.52;27.73;;;;;;;;;;5113233;27;20032;-70
2023/05/15 04:52:07;;;;;;;225.90;28.98;;;;;;;;;;5106468;28;20027;-70
2023/05/15 04:54:33;;;;;;;113.97;23.83;;;;;;;;;;5092226;28;20024;-70
2023/05/15 04:56:58;;;;;;;150.68;25.77;;;;;;;;;;5103327;28;20334;-70
2023/05/15 04:59:24;;;;;;;105.60;24.17;;;;;;;;;;5100213;27;20028;-70
2023/05/15 05:01:50;;;;;;;133.48;25.73;;;;;;;;;;5099670;27;20705;-70
2023/05/15 05:04:18;;;;;;;159.02;23.75;;;;;;;;;;5104276;28;20022;-70
2023/05/15 05:06:44;;;;;;;125.65;24.63;;;;;;;;;;5104190;28;20024;-70
2023/05/15 05:09:09;;;;;;;128.95;22.52;;;;;;;;;;5100090;27;20572;-70
2023/05/15 05:11:35;;;;;;;142.80;24.00;;;;;;;;;;5105539;27;20032;-70
2023/05/15 05:14:00;;;;;;;109.63;21.02;;;;;;;;;;5103605;28;20031;-70
2023/05/15 05:16:25;;;;;;;113.63;23.67;;;;;;;;;;5105990;28;20055;-70
2023/05/15 05:18:51;;;;;;;154.15;22.60;;;;;;;;;;5105378;27;20548;-70
2023/05/15 05:21:17;;;;;;;126.53;20.33;;;;;;;;;;5105361;27;20023;-70
2023/05/15 05:23:42;;;;;;;115.65;19.92;;;;;;;;;;5103973;28;20159;-70
2023/05/15 05:26:07;;;;;;;108.40;20.45;;;;;;;;;;5105995;28;20024;-70
2023/05/15 05:28:33;;;;;;;130.90;21.35;;;;;;;;;;5109668;27;20030;-70
2023/05/15 05:30:59;;;;;;;102.78;21.60;;;;;;;;;;5104551;27;20502;-70
2023/05/15 05:33:24;;;;;;;80.95;21.50;;;;;;;;;;5106870;28;20416;-70
2023/05/15 05:35:50;;;;;;;123.95;20.08;;;;;;;;;;5103051;28;20682;-70
2023/05/15 05:38:16;;;;;;;116.63;21.80;;;;;;;;;;5099659;28;20024;-70
2023/05/15 05:40:41;;;;;;;133.95;22.42;;;;;;;;;;5094487;27;20051;-70
2023/05/15 05:43:07;;;;;;;156.23;21.13;;;;;;;;;;5102180;28;20031;-71
2023/05/15 05:45:32;;;;;;;127.95;22.05;;;;;;;;;;5094775;27;20411;-70
2023/05/15 05:47:58;;;;;;;94.63;21.10;;;;;;;;;;5100824;27;20031;-70
2023/05/15 05:50:23;;;;;;;119.15;21.75;;;;;;;;;;5104689;27;20111;-70
2023/05/15 05:52:49;;;;;;;135.20;23.20;;;;;;;;;;5105356;28;20503;-70
2023/05/15 05:55:15;;;;;;;135.32;23.35;;;;;;;;;;5097628;28;20097;-70
2023/05/15 05:57:40;;;;;;;116.70;22.90;;;;;;;;;;5102249;27;20548;-70
2023/05/15 06:00:09;;;;;;;95.47;22.13;;;;;;;;;;5103953;27;20047;-70
2023/05/15 06:02:38;;;;;;;103.72;22.17;;;;;;;;;;5104676;27;20031;-70
2023/05/15 06:05:05;;;;;;;87.15;21.83;;;;;;;;;;5097293;28;20550;-70
2023/05/15 06:07:30;;;;;;;96.68;20.83;;;;;;;;;;5104195;28;20024;-70
2023/05/15 06:09:56;;;;;;;74.38;19.80;;;;;;;;;;5092877;28;20574;-69
2023/05/15 06:12:21;;;;;;;72.65;21.60;;;;;;;;;;5088268;28;20044;-70
2023/05/15 06:14:46;;;;;;;70.90;20.90;;;;;;;;;;5091561;28;20035;-70
2023/05/15 06:17:12;;;;;;;71.80;21.48;;;;;;;;;;5090123;28;20054;-70
2023/05/15 06:19:37;;;;;;;67.50;21.42;;;;;;;;;;5088143;28;20043;-70
2023/05/15 06:22:03;;;;;;;72.97;21.35;;;;;;;;;;5094792;28;20042;-70
2023/05/15 06:24:28;;;;;;;67.30;22.15;;;;;;;;;;5097946;28;20055;-70
2023/05/15 06:26:54;;;;;;;64.30;21.17;;;;;;;;;;5103055;27;20472;-71
2023/05/15 06:29:20;;;;;;;73.70;22.52;;;;;;;;;;5085424;28;20036;-71
2023/05/15 06:31:45;;;;;;;60.63;19.17;;;;;;;;;;5102348;27;20054;-71
2023/05/15 06:34:11;;;;;;;67.00;20.50;;;;;;;;;;5101655;28;20484;-71
2023/05/15 06:36:36;;;;;;;80.10;22.20;;;;;;;;;;5101229;28;20061;-71
2023/05/15 06:39:02;;;;;;;72.38;21.90;;;;;;;;;;5096768;27;20058;-71
2023/05/15 06:41:27;;;;;;;75.90;21.90;;;;;;;;;;5102965;28;20043;-71
2023/05/15 06:43:53;;;;;;;67.55;20.33;;;;;;;;;;5098170;27;20043;-71
2023/05/15 06:46:19;;;;;;;71.72;21.75;;;;;;;;;;5099830;28;20030;-71
2023/05/15 06:48:46;;;;;;;77.78;23.30;;;;;;;;;;5101249;27;20042;-71
2023/05/15 06:51:11;;;;;;;78.53;21.67;;;;;;;;;;5093407;27;20048;-71
2023/05/15 06:53:37;;;;;;;73.55;23.52;;;;;;;;;;5109785;28;20447;-71
2023/05/15 06:56:02;;;;;;;82.15;24.40;;;;;;;;;;5107337;27;20035;-71
2023/05/15 06:58:27;;;;;;;82.72;22.23;;;;;;;;;;5104452;28;20039;-71
2023/05/15 07:00:53;;;;;;;98.75;24.95;;;;;;;;;;5104153;27;20089;-71
2023/05/15 07:03:18;;;;;;;85.68;23.23;;;;;;;;;;5102877;28;20031;-71
2023/05/15 07:05:43;;;;;;;77.38;23.30;;;;;;;;;;5103160;27;20400;-71
2023/05/15 07:08:09;;;;;;;83.55;23.80;;;;;;;;;;5105380;28;20019;-71
2023/05/15 07:10:34;;;;;;;82.10;25.25;;;;;;;;;;5106232;27;20044;-71
2023/05/15 07:12:59;;;;;;;75.85;23.48;;;;;;;;;;5100375;27;20032;-72
2023/05/15 07:15:25;;;;;;;77.45;22.38;;;;;;;;;;5105820;27;20042;-72
2023/05/15 07:17:50;;;;;;;76.07;22.98;;;;;;;;;;5106406;28;20020;-72
2023/05/15 07:20:16;;;;;;;74.90;23.23;;;;;;;;;;5108569;28;20028;-72
2023/05/15 07:22:41;;;;;;;72.30;22.08;;;;;;;;;;5107812;27;20537;-72
2023/05/15 07:25:07;;;;;;;83.85;23.98;;;;;;;;;;5109162;27;20039;-72
2023/05/15 07:27:32;;;;;;;77.15;23.92;;;;;;;;;;5107150;28;20035;-72
2023/05/15 07:29:57;;;;;;;73.38;22.63;;;;;;;;;;5110285;27;20027;-72
2023/05/15 07:32:23;;;;;;;66.72;21.45;;;;;;;;;;5112250;27;20032;-71
2023/05/15 07:34:48;;;;;;;67.15;21.92;;;;;;;;;;5107463;27;20168;-71
2023/05/15 07:37:14;;;;;;;63.33;21.10;;;;;;;;;;5107044;27;20030;-71
2023/05/15 07:39:39;;;;;;;61.95;21.58;;;;;;;;;;5101917;27;20035;-71
2023/05/15 07:42:05;;;;;;;61.45;19.15;;;;;;;;;;5105591;27;20039;-72
2023/05/15 07:44:30;;;;;;;60.10;20.30;;;;;;;;;;5097303;28;20035;-72
2023/05/15 07:46:57;;;;;;;53.55;18.60;;;;;;;;;;5097318;27;20028;-71
2023/05/15 07:49:23;;;;;;;56.30;19.45;;;;;;;;;;5100518;27;20578;-72
2023/05/15 07:51:48;;;;;;;57.88;19.92;;;;;;;;;;5099957;27;20058;-71
2023/05/15 07:54:14;;;;;;;53.20;17.10;;;;;;;;;;5107358;27;20218;-72
2023/05/15 07:56:40;;;;;;;58.83;19.35;;;;;;;;;;5096722;27;20059;-72
2023/05/15 07:59:05;;;;;;;53.05;18.88;;;;;;;;;;5103786;27;20163;-71
2023/05/15 08:01:31;;;;;;;49.95;17.85;;;;;;;;;;5106974;27;20527;-72
2023/05/15 08:03:57;;;;;;;56.95;19.17;;;;;;;;;;5108559;27;20122;-72
2023/05/15 08:06:22;;;;;;;53.28;17.52;;;;;;;;;;5102110;27;20028;-71
2023/05/15 08:08:48;;;;;;;48.30;17.70;;;;;;;;;;5102108;27;20546;-71
2023/05/15 08:11:13;;;;;;;57.50;19.60;;;;;;;;;;5108795;27;20078;-72
2023/05/15 08:13:38;;;;;;;49.03;17.10;;;;;;;;;;5100474;27;20036;-71
2023/05/15 08:16:04;;;;;;;50.28;17.13;;;;;;;;;;5104076;27;20112;-72
2023/05/15 08:18:30;;;;;;;48.35;16.45;;;;;;;;;;5106166;27;20519;-72
2023/05/15 08:20:55;;;;;;;48.45;17.25;;;;;;;;;;5087129;27;20534;-72
2023/05/15 08:23:21;;;;;;;45.42;16.90;;;;;;;;;;5091371;27;20063;-72
2023/05/15 08:25:46;;;;;;;48.70;17.25;;;;;;;;;;5102825;27;20053;-72
2023/05/15 08:28:11;;;;;;;46.15;16.77;;;;;;;;;;5087120;27;20074;-72
2023/05/15 08:30:37;;;;;;;44.95;15.05;;;;;;;;;;5088854;27;20040;-72
2023/05/15 08:33:02;;;;;;;41.97;16.65;;;;;;;;;;5095416;27;20040;-72
2023/05/15 08:35:27;;;;;;;47.30;18.70;;;;;;;;;;5097850;27;20039;-72
2023/05/15 08:37:53;;;;;;;42.05;17.23;;;;;;;;;;5095958;27;20035;-72
2023/05/15 08:40:18;;;;;;;43.88;16.20;;;;;;;;;;5089385;28;20059;-71
2023/05/15 08:42:48;;;;;;;42.45;16.33;;;;;;;;;;5094638;27;20150;-71
2023/05/15 08:45:14;;;;;;;39.65;14.77;;;;;;;;;;5102056;27;20044;-72
2023/05/15 08:47:41;;;;;;;39.75;14.70;;;;;;;;;;5104012;27;20451;-72
2023/05/15 08:50:07;;;;;;;35.17;14.23;;;;;;;;;;5101374;27;20712;-72
2023/05/15 08:52:33;;;;;;;41.03;14.63;;;;;;;;;;5104618;27;20040;-72
2023/05/15 08:54:59;;;;;;;46.53;17.10;;;;;;;;;;5092639;27;20532;-72
2023/05/15 08:57:25;;;;;;;48.72;17.35;;;;;;;;;;5099791;27;20070;-72
2023/05/15 08:59:51;;;;;;;45.65;16.30;;;;;;;;;;5104552;27;20083;-72
2023/05/15 09:02:18;;;;;;;50.67;16.50;;;;;;;;;;5104842;28;20015;-70
2023/05/15 09:04:44;;;;;;;42.78;15.23;;;;;;;;;;5104289;27;20067;-71
2023/05/15 09:07:10;;;;;;;47.05;15.52;;;;;;;;;;5104542;27;20059;-72
2023/05/15 09:09:36;;;;;;;45.63;15.50;;;;;;;;;;5099773;27;20108;-71
2023/05/15 09:12:02;;;;;;;41.92;16.98;;;;;;;;;;5089116;27;20051;-72
2023/05/15 09:14:28;;;;;;;39.42;15.68;;;;;;;;;;5096463;27;20023;-71
2023/05/15 09:16:53;;;;;;;43.22;15.65;;;;;;;;;;5104005;27;20047;-71
2023/05/15 09:19:22;;;;;;;41.17;15.63;;;;;;;;;;5108748;27;20471;-72
2023/05/15 09:21:48;;;;;;;43.63;14.73;;;;;;;;;;5089881;27;20047;-72
2023/05/15 09:24:22;;;;;;;42.30;14.85;;;;;;;;;;5085093;27;20039;-71
2023/05/15 09:27:03;;;;;;;36.28;14.45;;;;;;;;;;5094973;27;20412;-71
2023/05/15 09:29:34;;;;;;;42.85;14.75;;;;;;;;;;5095872;28;20612;-72
2023/05/15 09:32:05;;;;;;;40.25;15.13;;;;;;;;;;5103827;27;20441;-72
2023/05/15 09:34:32;;;;;;;39.50;15.30;;;;;;;;;;5104686;27;20035;-72
2023/05/15 09:37:00;;;;;;;39.80;15.40;;;;;;;;;;5108452;27;20032;-72
2023/05/15 09:39:25;;;;;;;44.22;16.50;;;;;;;;;;5099267;28;20029;-72
2023/05/15 09:41:52;;;;;;;42.30;15.18;;;;;;;;;;5102147;27;20085;-71
2023/05/15 09:44:25;;;;;;;40.33;14.98;;;;;;;;;;5099775;28;20027;-72
2023/05/15 09:46:51;;;;;;;43.95;15.40;;;;;;;;;;5104823;27;20524;-72
2023/05/15 09:49:18;;;;;;;45.88;16.90;;;;;;;;;;5098146;27;20066;-72
2023/05/15 09:51:43;;;;;;;47.22;16.90;;;;;;;;;;5098552;27;20452;-72
2023/05/15 09:54:17;;;;;;;45.00;16.30;;;;;;;;;;5096461;27;20043;-72
2023/05/15 09:56:43;;;;;;;;;;;;;;;;;;5097471;27;20031;-72
2023/05/15 09:59:13;;;;;;;39.58;15.40;;;;;;;;;;5096556;28;19920;-72
2023/05/15 10:01:43;;;;;;;51.17;16.55;;;;;;;;;;5101529;27;20528;-72
2023/05/15 10:04:08;;;;;;;45.80;16.08;;;;;;;;;;5102350;28;20895;-71
2023/05/15 10:06:35;;;;;;;52.17;16.55;;;;;;;;;;5103396;27;20036;-72
2023/05/15 10:09:01;;;;;;;43.63;15.80;;;;;;;;;;5103159;27;20824;-72
2023/05/15 10:11:29;;;;;;;53.85;16.48;;;;;;;;;;5099844;28;20115;-72
2023/05/15 10:13:56;;;;;;;45.35;16.70;;;;;;;;;;5089320;27;20039;-72
2023/05/15 10:16:21;;;;;;;38.30;13.90;;;;;;;;;;5097766;27;20048;-72
2023/05/15 10:18:50;;;;;;;34.33;14.15;;;;;;;;;;5099847;28;20044;-72
2023/05/15 10:21:17;;;;;;;32.92;12.90;;;;;;;;;;5103002;27;20035;-72
2023/05/15 10:23:43;;;;;;;31.52;13.57;;;;;;;;;;5105621;27;20473;-72
2023/05/15 10:26:16;;;;;;;35.78;14.32;;;;;;;;;;5103915;28;20118;-72
2023/05/15 10:28:44;;;;;;;40.40;14.38;;;;;;;;;;5097312;28;20074;-71
2023/05/15 10:31:09;;;;;;;41.70;14.57;;;;;;;;;;5088467;28;20177;-72
2023/05/15 10:33:36;;;;;;;37.50;13.93;;;;;;;;;;5103901;27;20138;-73
2023/05/15 10:36:02;;;;;;;36.97;13.88;;;;;;;;;;5100842;27;20039;-73
2023/05/15 10:38:28;;;;;;;34.85;14.60;;;;;;;;;;5104191;28;20040;-73
2023/05/15 10:40:56;;;;;;;41.22;15.57;;;;;;;;;;5103518;27;20862;-72
2023/05/15 10:43:22;;;;;;;43.72;16.10;;;;;;;;;;5100970;28;20028;-73
2023/05/15 10:45:49;;;;;;;44.63;15.60;;;;;;;;;;5096121;28;20032;-72
2023/05/15 10:48:15;;;;;;;44.15;15.85;;;;;;;;;;5098461;28;20035;-72
2023/05/15 10:50:40;;;;;;;41.03;15.23;;;;;;;;;;5103161;27;20664;-72
2023/05/15 10:53:08;;;;;;;38.13;14.35;;;;;;;;;;5107303;28;20164;-72
2023/05/15 10:55:35;;;;;;;39.85;14.45;;;;;;;;;;5101906;27;20126;-72
2023/05/15 10:58:00;;;;;;;36.20;13.05;;;;;;;;;;5105753;27;20612;-72
2023/05/15 11:00:27;;;;;;;36.22;13.27;;;;;;;;;;5112326;27;20095;-72
2023/05/15 11:02:55;;;;;;;41.42;14.48;;;;;;;;;;5114209;27;20069;-72
2023/05/15 11:05:22;;;;;;;36.45;14.85;;;;;;;;;;5106880;28;20023;-72
2023/05/15 11:08:20;;;;;;;35.92;14.18;;;;;;;;;;5104480;28;20042;-72
2023/05/15 11:10:45;;;;;;;32.63;13.52;;;;;;;;;;5097228;28;20036;-72
2023/05/15 11:13:11;;;;;;;34.45;13.45;;;;;;;;;;5105797;27;20039;-72
2023/05/15 11:15:44;;;;;;;35.03;14.07;;;;;;;;;;5107184;27;20533;-72
2023/05/15 11:18:10;;;;;;;33.97;13.38;;;;;;;;;;5104332;28;20043;-72
2023/05/15 11:20:41;;;;;;;34.28;13.68;;;;;;;;;;5106948;28;20028;-71
2023/05/15 11:23:06;;;;;;;39.88;15.13;;;;;;;;;;5105722;28;20959;-72
2023/05/15 11:25:34;;;;;;;38.00;14.35;;;;;;;;;;5105449;27;20127;-72
2023/05/15 11:28:02;;;;;;;39.30;15.13;;;;;;;;;;5103295;28;20058;-71
2023/05/15 11:30:40;;;;;;;39.85;14.00;;;;;;;;;;5099105;27;20042;-71
2023/05/15 11:33:12;;;;;;;38.67;13.80;;;;;;;;;;5099670;27;20035;-71
2023/05/15 11:35:47;;;;;;;38.10;14.77;;;;;;;;;;5111669;27;20131;-72
2023/05/15 11:38:19;;;;;;;44.50;15.93;;;;;;;;;;5103462;28;20031;-72
2023/05/15 11:40:47;;;;;;;40.88;15.63;;;;;;;;;;5096124;28;20053;-72
2023/05/15 11:43:31;;;;;;;48.28;16.60;;;;;;;;;;5105429;27;20036;-73
2023/05/15 11:46:09;;;;;;;35.70;12.50;;;;;;;;;;5098124;28;20424;-71
2023/05/15 11:48:38;;;;;;;45.95;18.00;;;;;;;;;;5094402;27;20055;-73
2023/05/15 11:51:09;;;;;;;46.70;17.27;;;;;;;;;;5101626;27;20036;-72
2023/05/15 11:53:34;;;;;;;44.80;16.98;;;;;;;;;;5089552;28;20104;-72
2023/05/15 11:56:00;;;;;;;41.83;15.38;;;;;;;;;;5103641;27;20035;-73
2023/05/15 11:58:25;;;;;;;47.50;16.98;;;;;;;;;;5102951;28;20043;-73
2023/05/15 12:00:52;;;;;;;45.50;17.33;;;;;;;;;;5096741;28;20055;-71
2023/05/15 12:03:23;;;;;;;45.15;17.08;;;;;;;;;;5104565;27;20039;-72
2023/05/15 12:05:50;;;;;;;46.55;16.70;;;;;;;;;;5103170;27;20024;-72
2023/05/15 12:08:15;;;;;;;53.80;17.90;;;;;;;;;;5105829;27;20019;-72
2023/05/15 12:10:45;;;;;;;52.25;18.40;;;;;;;;;;5099141;28;20039;-73
2023/05/15 12:13:11;;;;;;;50.97;17.92;;;;;;;;;;5102987;27;20039;-72
2023/05/15 12:15:38;;;;;;;53.25;18.55;;;;;;;;;;5089303;27;20154;-72
2023/05/15 12:18:06;;;;;;;41.25;14.88;;;;;;;;;;5107742;27;20573;-72
2023/05/15 12:20:36;;;;;;;44.00;15.52;;;;;;;;;;5099381;27;20034;-72
2023/05/15 12:23:03;;;;;;;39.42;14.38;;;;;;;;;;5106801;28;20516;-72
2023/05/15 12:25:29;;;;;;;36.72;13.80;;;;;;;;;;5109091;27;20050;-72
2023/05/15 12:27:57;;;;;;;42.08;15.38;;;;;;;;;;5104935;28;20074;-73
2023/05/15 12:30:23;;;;;;;41.28;14.35;;;;;;;;;;5074716;28;20047;-72
2023/05/15 12:32:48;;;;;;;34.33;13.88;;;;;;;;;;5099178;27;20034;-72
2023/05/15 12:35:14;;;;;;;44.83;15.85;;;;;;;;;;5093318;28;20373;-74
2023/05/15 12:37:40;;;;;;;42.38;15.75;;;;;;;;;;5103905;27;20523;-74
2023/05/15 12:40:10;;;;;;;37.72;13.88;;;;;;;;;;5088995;28;20471;-74
2023/05/15 12:42:44;;;;;;;36.08;12.82;;;;;;;;;;5112868;27;20066;-74
2023/05/15 12:45:17;;;;;;;36.80;13.57;;;;;;;;;;5096266;27;20108;-74
2023/05/15 12:47:44;;;;;;;31.02;10.73;;;;;;;;;;5088016;27;20560;-73
2023/05/15 12:50:20;;;;;;;27.38;10.32;;;;;;;;;;5090425;27;20028;-74
2023/05/15 12:52:46;;;;;;;23.08;9.70;;;;;;;;;;5085251;28;20050;-73
2023/05/15 12:55:16;;;;;;;22.65;8.93;;;;;;;;;;5103253;27;20051;-73
2023/05/15 12:57:41;;;;;;;20.92;7.57;;;;;;;;;;5084120;28;20057;-73
2023/05/15 13:00:10;;;;;;;20.60;8.30;;;;;;;;;;5105498;27;20055;-71
2023/05/15 13:02:35;;;;;;;16.95;6.57;;;;;;;;;;5101171;28;20053;-71
2023/05/15 13:05:02;;;;;;;22.30;7.88;;;;;;;;;;5102702;27;20047;-71
2023/05/15 13:07:28;;;;;;;19.63;6.53;;;;;;;;;;5101869;27;20035;-71
2023/05/15 13:10:07;;;;;;;18.70;7.35;;;;;;;;;;5096897;28;20536;-71
2023/05/15 13:12:38;;;;;;;14.20;5.57;;;;;;;;;;5097051;28;20451;-71
2023/05/15 13:15:07;;;;;;;9.57;3.72;;;;;;;;;;5089008;27;20075;-71
2023/05/15 13:17:38;;;;;;;7.40;3.40;;;;;;;;;;5088764;27;20024;-71
2023/05/15 13:20:05;;;;;;;7.30;3.28;;;;;;;;;;5095692;28;20524;-71
2023/05/15 13:22:30;;;;;;;5.85;2.25;;;;;;;;;;5102994;27;20609;-71
2023/05/15 13:24:56;;;;;;;3.83;2.03;;;;;;;;;;5103462;27;20039;-71
2023/05/15 13:27:21;;;;;;;6.47;2.20;;;;;;;;;;5085360;27;20062;-71
2023/05/15 13:29:47;;;;;;;3.35;1.75;;;;;;;;;;5089992;27;20045;-71
2023/05/15 13:32:13;;;;;;;2.90;1.83;;;;;;;;;;5100128;28;20031;-71
2023/05/15 13:34:38;;;;;;;4.53;1.98;;;;;;;;;;5081376;27;20032;-71
2023/05/15 13:37:04;;;;;;;4.97;1.92;;;;;;;;;;5094969;27;20654;-71
2023/05/15 13:39:29;;;;;;;3.13;1.90;;;;;;;;;;5088823;28;20044;-71
2023/05/15 13:41:54;;;;;;;4.38;2.08;;;;;;;;;;5104682;27;20046;-71
2023/05/15 13:44:20;;;;;;;3.90;1.90;;;;;;;;;;5088291;27;20073;-71
2023/05/15 13:46:45;;;;;;;2.83;1.80;;;;;;;;;;5096480;27;20031;-71
2023/05/15 13:49:11;;;;;;;2.28;1.52;;;;;;;;;;5100164;27;20055;-71
2023/05/15 13:51:36;;;;;;;3.95;1.90;;;;;;;;;;5101615;28;20039;-71
2023/05/15 13:54:01;;;;;;;3.72;1.77;;;;;;;;;;5102754;27;20059;-71
2023/05/15 13:56:27;;;;;;;4.80;1.75;;;;;;;;;;5094816;28;20055;-71
2023/05/15 13:58:52;;;;;;;4.00;1.58;;;;;;;;;;5090039;27;20096;-71
2023/05/15 14:01:17;;;;;;;4.28;1.88;;;;;;;;;;5081527;28;20831;-71
2023/05/15 14:03:44;;;;;;;3.30;1.83;;;;;;;;;;5084578;27;20164;-70
2023/05/15 14:06:09;;;;;;;6.13;2.08;;;;;;;;;;5081507;27;20969;-71
2023/05/15 14:08:34;;;;;;;4.00;1.80;;;;;;;;;;5088241;28;20030;-71
2023/05/15 14:11:00;;;;;;;3.53;2.00;;;;;;;;;;5098804;28;20108;-72
2023/05/15 14:13:25;;;;;;;3.53;1.58;;;;;;;;;;5100288;28;20042;-71
2023/05/15 14:15:51;;;;;;;3.80;1.70;;;;;;;;;;5099884;28;20116;-71
2023/05/15 14:18:16;;;;;;;3.00;1.98;;;;;;;;;;5102450;28;20040;-71